createdAt,value
2023-05-10T00:00:25.714Z,85.44
2023-05-10T00:03:11.551Z,85.42
2023-05-10T00:05:41.188Z,85.49
2023-05-10T00:08:10.824Z,85.65
2023-05-10T00:10:42.885Z,85.67
2023-05-10T00:13:12.244Z,85.64
2023-05-10T00:15:42.572Z,85.61
2023-05-10T00:18:14.034Z,85.60
2023-05-10T00:20:47.879Z,85.55
2023-05-10T00:23:17.238Z,85.53
2023-05-10T00:25:46.753Z,85.66
2023-05-10T00:28:16.162Z,85.54
2023-05-10T00:30:45.879Z,85.44
2023-05-10T00:33:15.646Z,85.43
2023-05-10T00:35:45.255Z,85.57
2023-05-10T00:38:15.457Z,85.43
2023-05-10T00:40:45.206Z,85.42
2023-05-10T00:43:20.495Z,85.39
2023-05-10T00:45:52.568Z,85.38
2023-05-10T00:48:23.516Z,85.35
2023-05-10T00:50:52.978Z,85.40
2023-05-10T00:53:22.976Z,85.65
2023-05-10T00:55:52.496Z,85.57
2023-05-10T00:58:22.079Z,85.56
2023-05-10T01:00:53.410Z,85.70
2023-05-10T01:03:23.653Z,85.81
2023-05-10T01:05:53.227Z,85.76
2023-05-10T01:08:27.200Z,85.88
2023-05-10T01:10:59.554Z,85.96
2023-05-10T01:13:39.093Z,86.08
2023-05-10T01:16:08.810Z,86.08
2023-05-10T01:18:41.974Z,86.09
2023-05-10T01:22:13.092Z,86.14
2023-05-10T01:25:11.707Z,86.21
2023-05-10T01:28:00.920Z,86.08
2023-05-10T01:31:12.833Z,86.00
2023-05-10T01:34:16.663Z,86.11
2023-05-10T01:37:00.290Z,86.07
2023-05-10T01:39:38.386Z,86.03
2023-05-10T01:42:30.218Z,86.04
2023-05-10T01:45:28.913Z,85.83
2023-05-10T01:48:21.447Z,85.77
2023-05-10T01:50:53.522Z,85.91
2023-05-10T01:53:24.448Z,86.03
2023-05-10T01:55:57.588Z,86.12
2023-05-10T01:58:34.111Z,86.22
2023-05-10T02:01:07.145Z,86.29
2023-05-10T02:03:39.606Z,86.31
2023-05-10T02:06:11.841Z,86.37
2023-05-10T02:08:42.967Z,86.50
2023-05-10T02:11:15.180Z,86.53
2023-05-10T02:13:46.228Z,86.70
2023-05-10T02:16:19.027Z,86.92
2023-05-10T02:18:50.657Z,87.11
2023-05-10T02:21:23.443Z,87.18
2023-05-10T02:23:54.078Z,87.16
2023-05-10T02:26:26.473Z,87.10
2023-05-10T02:28:58.401Z,87.21
2023-05-10T02:31:28.082Z,87.28
2023-05-10T02:34:00.190Z,87.68
2023-05-10T02:36:33.070Z,87.83
2023-05-10T02:39:03.601Z,88.00
2023-05-10T02:41:34.612Z,88.20
2023-05-10T02:44:07.978Z,88.25
2023-05-10T02:46:38.828Z,88.22
2023-05-10T02:49:09.824Z,88.16
2023-05-10T02:51:52.011Z,88.16
2023-05-10T02:54:31.604Z,88.15
2023-05-10T02:57:06.626Z,88.17
2023-05-10T02:59:36.513Z,88.13
2023-05-10T03:02:08.986Z,88.05
2023-05-10T03:04:39.134Z,88.15
2023-05-10T03:07:09.245Z,88.09
2023-05-10T03:09:42.495Z,88.17
2023-05-10T03:13:12.209Z,87.99
2023-05-10T03:16:28.369Z,88.22
2023-05-10T03:19:28.850Z,88.18
2023-05-10T03:22:05.968Z,88.04
2023-05-10T03:24:42.720Z,88.04
2023-05-10T03:27:13.085Z,87.92
2023-05-10T03:29:47.934Z,87.78
2023-05-10T03:32:19.795Z,87.60
2023-05-10T03:34:51.517Z,87.51
2023-05-10T03:37:25.071Z,87.54
2023-05-10T03:39:55.241Z,87.77
2023-05-10T03:42:25.008Z,87.73
2023-05-10T03:44:54.533Z,87.80
2023-05-10T03:47:24.746Z,87.80
2023-05-10T03:49:55.620Z,87.83
2023-05-10T03:52:26.627Z,87.88
2023-05-10T03:54:56.047Z,87.80
2023-05-10T03:57:26.739Z,87.79
2023-05-10T03:59:57.034Z,87.60
2023-05-10T04:02:28.969Z,87.58
2023-05-10T04:04:58.551Z,87.31
2023-05-10T04:07:28.818Z,87.23
2023-05-10T04:09:58.949Z,86.96
2023-05-10T04:12:30.881Z,86.45
2023-05-10T04:15:00.308Z,86.69
2023-05-10T04:17:30.712Z,86.71
2023-05-10T04:20:01.954Z,86.37
2023-05-10T04:22:31.587Z,86.17
2023-05-10T04:25:01.977Z,86.16
2023-05-10T04:27:32.943Z,86.14
2023-05-10T04:30:03.819Z,85.76
2023-05-10T04:32:33.618Z,85.83
2023-05-10T04:35:05.789Z,85.80
2023-05-10T04:37:35.998Z,86.08
2023-05-10T04:40:09.820Z,86.28
2023-05-10T04:42:48.586Z,86.13
2023-05-10T04:45:20.948Z,86.19
2023-05-10T04:47:50.572Z,85.68
2023-05-10T04:50:20.868Z,84.80
2023-05-10T04:52:52.687Z,85.16
2023-05-10T04:55:24.864Z,84.77
2023-05-10T04:57:58.488Z,83.89
2023-05-10T05:00:27.951Z,83.77
2023-05-10T05:02:57.741Z,83.38
2023-05-10T05:05:27.398Z,83.29
2023-05-10T05:07:58.082Z,82.85
2023-05-10T05:10:27.739Z,82.67
2023-05-10T05:12:58.254Z,83.17
2023-05-10T05:15:29.086Z,82.77
2023-05-10T05:17:58.845Z,82.51
2023-05-10T05:20:28.607Z,82.92
2023-05-10T05:22:58.087Z,82.64
2023-05-10T05:25:27.361Z,82.75
2023-05-10T05:27:58.381Z,82.60
2023-05-10T05:30:28.010Z,81.77
2023-05-10T05:32:57.880Z,81.57
2023-05-10T05:35:27.426Z,79.69
2023-05-10T05:37:57.121Z,79.73
2023-05-10T05:40:26.618Z,80.32
2023-05-10T05:42:56.420Z,80.82
2023-05-10T05:45:27.015Z,80.98
2023-05-10T05:47:56.424Z,81.05
2023-05-10T05:50:26.035Z,80.65
2023-05-10T05:52:59.079Z,81.28
2023-05-10T05:55:28.897Z,81.26
2023-05-10T05:58:00.057Z,79.75
2023-05-10T06:00:29.730Z,79.53
2023-05-10T06:02:59.142Z,80.27
2023-05-10T06:05:28.571Z,80.61
2023-05-10T06:08:02.540Z,79.62
2023-05-10T06:10:32.390Z,79.39
2023-05-10T06:13:01.798Z,78.13
2023-05-10T06:15:31.656Z,79.00
2023-05-10T06:18:01.344Z,78.61
2023-05-10T06:20:32.841Z,77.65
2023-05-10T06:23:02.367Z,76.74
2023-05-10T06:25:31.675Z,75.12
2023-05-10T06:28:01.481Z,76.54
2023-05-10T06:30:31.159Z,76.46
2023-05-10T06:33:02.878Z,77.63
2023-05-10T06:35:34.626Z,78.01
2023-05-10T06:38:03.930Z,77.29
2023-05-10T06:40:34.879Z,75.72
2023-05-10T06:43:05.131Z,75.33
2023-05-10T06:45:34.691Z,76.30
2023-05-10T06:48:04.571Z,73.86
2023-05-10T06:50:35.495Z,73.77
2023-05-10T06:53:04.976Z,74.08
2023-05-10T06:55:34.685Z,71.21
2023-05-10T06:58:04.472Z,72.73
2023-05-10T07:00:34.112Z,73.20
2023-05-10T07:03:03.997Z,71.33
2023-05-10T07:05:33.564Z,72.32
2023-05-10T07:08:03.121Z,73.62
2023-05-10T07:10:32.687Z,72.49
2023-05-10T07:13:02.527Z,68.74
2023-05-10T07:15:33.670Z,67.34
2023-05-10T07:18:07.185Z,68.66
2023-05-10T07:20:36.997Z,66.46
2023-05-10T07:23:06.291Z,65.74
2023-05-10T07:25:35.626Z,66.10
2023-05-10T07:28:07.835Z,63.66
2023-05-10T07:30:39.728Z,65.31
2023-05-10T07:33:11.546Z,64.60
2023-05-10T07:35:41.655Z,64.66
2023-05-10T07:38:15.610Z,63.57
2023-05-10T07:40:45.034Z,62.27
2023-05-10T07:43:14.458Z,63.50
2023-05-10T07:45:44.412Z,62.11
2023-05-10T07:48:13.810Z,62.57
2023-05-10T07:50:43.363Z,63.97
2023-05-10T07:53:12.687Z,62.51
2023-05-10T07:55:42.123Z,60.86
2023-05-10T07:58:11.576Z,63.29
2023-05-10T08:00:42.393Z,61.03
2023-05-10T08:03:12.174Z,60.99
2023-05-10T08:05:42.409Z,59.31
2023-05-10T08:08:11.738Z,58.96
2023-05-10T08:10:42.441Z,59.92
2023-05-10T08:13:14.853Z,59.44
2023-05-10T08:15:45.522Z,61.13
2023-05-10T08:18:15.328Z,60.97
2023-05-10T08:20:44.738Z,60.93
2023-05-10T08:23:14.581Z,59.96
2023-05-10T08:25:44.024Z,60.09
2023-05-10T08:28:13.478Z,58.91
2023-05-10T08:30:43.488Z,57.81
2023-05-10T08:33:13.604Z,56.50
2023-05-10T08:35:43.362Z,58.19
2023-05-10T08:38:13.912Z,56.09
2023-05-10T08:40:45.158Z,55.28
2023-05-10T08:43:17.667Z,55.56
2023-05-10T08:45:48.133Z,55.02
2023-05-10T08:48:19.954Z,55.42
2023-05-10T08:50:51.704Z,55.90
2023-05-10T08:53:22.518Z,53.02
2023-05-10T08:55:52.034Z,52.90
2023-05-10T08:58:21.632Z,52.16
2023-05-10T09:00:54.663Z,52.77
2023-05-10T09:03:24.155Z,53.11
2023-05-10T09:05:53.626Z,53.83
2023-05-10T09:08:28.497Z,50.34
2023-05-10T09:10:58.676Z,49.00
2023-05-10T09:13:29.530Z,51.19
2023-05-10T09:16:06.998Z,50.72
2023-05-10T09:18:43.863Z,50.40
2023-05-10T09:21:14.804Z,50.87
2023-05-10T09:23:48.606Z,52.55
2023-05-10T09:26:23.731Z,53.93
2023-05-10T09:29:01.400Z,50.02
2023-05-10T09:31:55.758Z,49.25
2023-05-10T09:34:33.450Z,50.36
2023-05-10T09:37:05.628Z,48.96
2023-05-10T09:39:39.617Z,46.71
2023-05-10T09:42:11.146Z,47.98
2023-05-10T09:44:42.064Z,47.56
2023-05-10T09:47:11.398Z,47.12
2023-05-10T09:49:43.106Z,44.11
2023-05-10T09:52:12.718Z,46.42
2023-05-10T09:54:54.472Z,45.41
2023-05-10T09:57:27.065Z,45.51
2023-05-10T09:59:58.694Z,46.15
2023-05-10T10:02:33.163Z,44.46
2023-05-10T10:05:05.130Z,42.50
2023-05-10T10:07:36.109Z,43.52
2023-05-10T10:10:06.449Z,42.76
2023-05-10T10:12:37.988Z,43.13
2023-05-10T10:15:10.894Z,42.59
2023-05-10T10:17:42.025Z,43.29
2023-05-10T10:20:12.465Z,42.09
2023-05-10T10:22:43.043Z,39.98
2023-05-10T10:25:18.137Z,40.94
2023-05-10T10:27:54.187Z,38.48
2023-05-10T10:30:52.167Z,38.73
2023-05-10T10:34:02.358Z,37.04
2023-05-10T10:36:32.402Z,36.03
2023-05-10T10:39:03.979Z,37.21
2023-05-10T10:41:45.669Z,38.38
2023-05-10T10:45:34.256Z,37.73
2023-05-10T10:48:37.070Z,36.74
2023-05-10T10:51:07.035Z,36.89
2023-05-10T10:53:38.660Z,36.36
2023-05-10T10:56:17.662Z,39.12
2023-05-10T10:58:55.699Z,37.05
2023-05-10T11:01:38.109Z,38.17
2023-05-10T11:04:08.245Z,37.46
2023-05-10T11:06:38.475Z,37.88
2023-05-10T11:09:10.985Z,37.24
2023-05-10T11:11:57.347Z,37.41
2023-05-10T11:14:27.435Z,39.47
2023-05-10T11:16:57.113Z,40.16
2023-05-10T11:19:29.380Z,37.10
2023-05-10T11:22:05.465Z,36.98
2023-05-10T11:24:37.140Z,36.80
2023-05-10T11:27:09.878Z,36.40
2023-05-10T11:29:40.136Z,35.72
2023-05-10T11:32:16.731Z,36.18
2023-05-10T11:34:51.971Z,35.31
2023-05-10T11:37:37.101Z,35.57
2023-05-10T11:40:08.155Z,38.07
2023-05-10T11:43:32.759Z,36.39
2023-05-10T11:46:03.032Z,35.39
2023-05-10T11:48:37.589Z,36.39
2023-05-10T11:51:09.788Z,36.16
2023-05-10T11:53:42.380Z,38.07
2023-05-10T11:56:13.402Z,37.72
2023-05-10T11:58:43.128Z,38.00
2023-05-10T12:01:13.456Z,37.12
2023-05-10T12:03:50.332Z,37.82
2023-05-10T12:06:21.965Z,37.08
2023-05-10T12:08:55.778Z,37.39
2023-05-10T12:11:29.318Z,37.74
2023-05-10T12:13:59.116Z,38.06
2023-05-10T12:16:31.849Z,37.86
2023-05-10T12:19:02.390Z,38.48
2023-05-10T12:21:37.220Z,38.48
2023-05-10T12:24:07.502Z,38.69
2023-05-10T12:26:39.809Z,39.30
2023-05-10T12:29:42.708Z,40.77
2023-05-10T12:32:16.612Z,41.36
2023-05-10T12:34:48.429Z,42.00
2023-05-10T12:37:30.018Z,41.58
2023-05-10T12:40:02.196Z,41.93
2023-05-10T12:42:34.085Z,41.65
2023-05-10T12:45:42.800Z,41.13
2023-05-10T12:59:22.146Z,42.98
2023-05-10T13:02:03.539Z,41.02
2023-05-10T13:04:40.541Z,40.34
2023-05-10T13:07:24.534Z,40.87
2023-05-10T13:09:57.285Z,42.67
2023-05-10T13:12:26.883Z,40.27
2023-05-10T13:14:58.644Z,41.03
2023-05-10T13:17:29.163Z,40.59
2023-05-10T13:20:08.039Z,41.92
2023-05-10T13:22:40.832Z,41.38
2023-05-10T13:25:13.349Z,41.36
2023-05-10T13:27:44.065Z,40.82
2023-05-10T13:30:14.185Z,40.49
2023-05-10T13:32:44.278Z,39.35
2023-05-10T13:35:14.038Z,39.73
2023-05-10T13:37:44.028Z,40.37
2023-05-10T13:40:16.772Z,40.18
2023-05-10T13:42:51.985Z,38.66
2023-05-10T13:45:22.090Z,37.95
2023-05-10T13:47:51.552Z,37.94
2023-05-10T13:50:23.011Z,37.02
2023-05-10T13:52:58.444Z,37.55
2023-05-10T13:55:33.838Z,37.93
2023-05-10T13:58:03.536Z,36.37
2023-05-10T14:00:34.997Z,34.63
2023-05-10T14:03:06.114Z,35.30
2023-05-10T14:05:48.971Z,34.62
2023-05-10T14:08:19.239Z,35.20
2023-05-10T14:10:50.026Z,34.75
2023-05-10T14:13:19.686Z,34.91
2023-05-10T14:15:49.665Z,35.17
2023-05-10T14:18:19.358Z,35.47
2023-05-10T14:20:48.834Z,35.26
2023-05-10T14:23:20.725Z,38.24
2023-05-10T14:25:50.112Z,39.87
2023-05-10T14:28:21.737Z,44.84
2023-05-10T14:31:33.989Z,46.39
2023-05-10T14:34:05.603Z,46.35
2023-05-10T14:37:00.742Z,46.37
2023-05-10T14:39:43.692Z,44.92
2023-05-10T14:43:08.066Z,43.76
2023-05-10T14:46:41.280Z,44.75
2023-05-10T14:50:40.833Z,43.96
2023-05-10T14:53:33.495Z,43.44
2023-05-10T14:57:00.846Z,42.25
2023-05-10T14:59:47.050Z,41.81
2023-05-10T15:03:00.018Z,41.61
2023-05-10T15:06:35.316Z,42.47
2023-05-10T15:40:25.989Z,45.01
2023-05-10T15:44:21.898Z,45.22
2023-05-10T15:47:44.329Z,45.71
2023-05-10T15:50:25.236Z,47.20
2023-05-10T15:52:55.061Z,47.25
2023-05-10T16:00:11.210Z,48.20
2023-05-10T16:03:18.782Z,48.58
2023-05-10T16:06:27.085Z,49.00
2023-05-10T16:09:09.051Z,49.13
2023-05-10T16:11:40.607Z,48.76
2023-05-10T16:14:09.894Z,46.16
2023-05-10T16:16:48.426Z,44.78
2023-05-10T16:19:37.372Z,44.75
2023-05-10T16:22:08.272Z,44.86
2023-05-10T16:24:43.917Z,44.84
2023-05-10T16:27:33.917Z,44.73
2023-05-10T16:30:04.058Z,45.16
2023-05-10T16:32:37.032Z,45.68
2023-05-10T16:35:22.193Z,45.73
2023-05-10T16:37:59.201Z,46.58
2023-05-10T16:40:27.774Z,47.03
2023-05-10T16:43:21.095Z,47.20
2023-05-10T16:45:51.457Z,47.38
2023-05-10T16:48:54.347Z,47.99
2023-05-10T16:55:38.652Z,48.86
2023-05-10T16:59:26.783Z,49.24
2023-05-10T17:02:38.728Z,49.61
2023-05-10T17:05:56.106Z,49.61
2023-05-10T17:09:25.906Z,50.69
2023-05-10T17:12:00.359Z,51.04
2023-05-10T17:14:34.874Z,51.08
2023-05-10T17:17:04.275Z,51.57
2023-05-10T17:19:38.974Z,51.72
2023-05-10T17:22:07.773Z,52.20
2023-05-10T17:24:36.475Z,52.48
2023-05-10T17:27:08.829Z,52.75
2023-05-10T17:29:37.759Z,53.29
2023-05-10T17:32:08.542Z,53.38
2023-05-10T17:34:37.774Z,53.37
2023-05-10T17:37:06.034Z,53.34
2023-05-10T17:39:37.509Z,53.46
2023-05-10T17:42:07.032Z,53.43
2023-05-10T17:44:36.327Z,53.51
2023-05-10T17:47:06.248Z,53.74
2023-05-10T17:49:37.794Z,54.06
2023-05-10T17:52:30.265Z,53.81
2023-05-10T17:55:03.526Z,53.98
2023-05-10T17:57:34.814Z,54.23
2023-05-10T18:00:08.932Z,54.38
2023-05-10T18:02:41.705Z,54.41
2023-05-10T18:05:12.518Z,54.42
2023-05-10T18:07:40.701Z,54.78
2023-05-10T18:10:10.906Z,55.06
2023-05-10T18:12:39.074Z,55.11
2023-05-10T18:15:09.210Z,55.47
2023-05-10T18:17:38.025Z,55.84
2023-05-10T18:20:07.183Z,56.00
2023-05-10T18:22:37.445Z,56.14
2023-05-10T18:25:08.516Z,56.60
2023-05-10T18:27:36.802Z,56.68
2023-05-10T18:30:10.373Z,56.88
2023-05-10T18:32:42.823Z,56.84
2023-05-10T18:35:11.817Z,57.07
2023-05-10T18:37:41.869Z,57.18
2023-05-10T18:40:12.321Z,57.34
2023-05-10T18:42:41.777Z,57.74
2023-05-10T18:45:13.161Z,57.78
2023-05-10T18:47:42.420Z,58.20
2023-05-10T18:50:15.200Z,58.41
2023-05-10T18:52:43.539Z,58.59
2023-05-10T18:55:14.590Z,58.67
2023-05-10T18:57:44.633Z,58.90
2023-05-10T19:00:13.493Z,59.20
2023-05-10T19:02:41.622Z,59.32
2023-05-10T19:05:10.645Z,59.72
2023-05-10T19:07:42.747Z,59.82
2023-05-10T19:10:16.143Z,60.20
2023-05-10T19:12:44.199Z,60.10
2023-05-10T19:15:12.808Z,60.49
2023-05-10T19:17:41.516Z,60.77
2023-05-10T19:20:11.864Z,61.23
2023-05-10T19:25:12.636Z,61.67
2023-05-10T19:27:40.703Z,61.92
2023-05-10T19:30:09.785Z,62.21
2023-05-10T19:32:38.230Z,62.43
2023-05-10T19:35:07.121Z,62.80
2023-05-10T19:37:35.613Z,62.77
2023-05-10T19:40:05.290Z,63.18
2023-05-10T19:42:33.962Z,63.47
2023-05-10T19:45:03.526Z,63.46
2023-05-10T19:47:35.248Z,63.97
2023-05-10T19:50:04.435Z,64.09
2023-05-10T19:52:33.242Z,64.19
2023-05-10T19:55:01.582Z,64.13
2023-05-10T19:57:29.820Z,64.42
2023-05-10T19:59:57.806Z,64.73
2023-05-10T20:02:27.079Z,64.84
2023-05-10T20:04:55.672Z,64.92
2023-05-10T20:07:26.087Z,64.71
2023-05-10T20:09:55.389Z,64.94
2023-05-10T20:12:23.571Z,65.19
2023-05-10T20:14:51.663Z,65.30
2023-05-10T20:17:21.007Z,65.28
2023-05-10T20:19:50.746Z,65.20
2023-05-10T20:22:20.415Z,65.41
2023-05-10T20:24:48.660Z,65.53
2023-05-10T20:27:17.942Z,65.74
2023-05-10T20:29:46.095Z,65.89
2023-05-10T20:32:14.619Z,66.00
2023-05-10T20:34:43.790Z,66.07
2023-05-10T20:37:14.718Z,66.34
2023-05-10T20:39:44.923Z,66.15
2023-05-10T20:42:14.479Z,66.25
2023-05-10T20:44:42.846Z,66.48
2023-05-10T20:47:11.575Z,66.67
2023-05-10T20:49:40.207Z,66.77
2023-05-10T20:52:12.337Z,67.00
2023-05-10T20:54:42.668Z,67.45
2023-05-10T20:57:14.166Z,67.57
2023-05-10T20:59:45.324Z,67.69
2023-05-10T21:02:24.379Z,67.73
2023-05-10T21:04:56.348Z,67.88
2023-05-10T21:07:30.641Z,68.09
2023-05-10T21:10:00.529Z,68.20
2023-05-10T21:12:37.920Z,68.34
2023-05-10T21:15:08.604Z,68.36
2023-05-10T21:17:36.743Z,68.58
2023-05-10T21:20:05.862Z,68.21
2023-05-10T21:22:34.312Z,68.30
2023-05-10T21:25:02.499Z,68.42
2023-05-10T21:27:30.859Z,68.83
2023-05-10T21:30:01.379Z,68.86
2023-05-10T21:32:30.691Z,68.81
2023-05-10T21:35:01.475Z,69.07
2023-05-10T21:37:29.680Z,69.39
2023-05-10T21:39:58.601Z,69.49
2023-05-10T21:42:28.169Z,69.44
2023-05-10T21:44:56.688Z,69.60
2023-05-10T21:47:26.911Z,69.58
2023-05-10T21:49:55.209Z,69.67
2023-05-10T21:52:23.505Z,69.69
2023-05-10T21:54:51.899Z,70.06
2023-05-10T21:57:20.968Z,70.28
2023-05-10T21:59:49.706Z,70.94
2023-05-10T22:02:17.997Z,70.97
2023-05-10T22:04:46.211Z,70.94
2023-05-10T22:07:16.616Z,71.24
2023-05-10T22:09:44.932Z,71.68
2023-05-10T22:12:13.598Z,71.92
2023-05-10T22:14:41.779Z,71.90
2023-05-10T22:17:10.372Z,72.01
2023-05-10T22:19:38.966Z,71.86
2023-05-10T22:22:07.282Z,71.86
2023-05-10T22:24:35.530Z,71.98
2023-05-10T22:27:04.313Z,72.14
2023-05-10T22:29:32.565Z,72.33
2023-05-10T22:32:05.719Z,72.39
2023-05-10T22:34:35.266Z,72.80
2023-05-10T22:37:03.601Z,72.62
2023-05-10T22:39:32.949Z,72.79
2023-05-10T22:42:01.557Z,73.10
2023-05-10T22:44:29.804Z,73.33
2023-05-10T22:46:58.299Z,73.42
2023-05-10T22:49:26.771Z,73.70
2023-05-10T22:51:54.978Z,74.07
2023-05-10T22:54:24.070Z,74.10
2023-05-10T22:56:54.354Z,74.11
2023-05-10T22:59:23.787Z,74.04
2023-05-10T23:01:53.593Z,74.16
2023-05-10T23:04:22.530Z,74.40
2023-05-10T23:06:53.207Z,73.94
2023-05-10T23:09:21.520Z,74.25
2023-05-10T23:11:49.665Z,74.66
2023-05-10T23:14:17.848Z,74.27
2023-05-10T23:16:47.211Z,74.23
2023-05-10T23:19:16.666Z,74.42
2023-05-10T23:21:46.874Z,74.47
2023-05-10T23:24:15.534Z,74.47
2023-05-10T23:26:46.928Z,74.53
2023-05-10T23:29:17.623Z,74.67
2023-05-10T23:31:48.990Z,75.15
2023-05-10T23:34:17.990Z,75.29
2023-05-10T23:36:46.262Z,75.58
2023-05-10T23:39:14.933Z,75.79
2023-05-10T23:41:46.230Z,76.00
2023-05-10T23:44:14.364Z,76.07
2023-05-10T23:46:44.178Z,75.88
2023-05-10T23:49:12.449Z,75.98
2023-05-10T23:51:41.131Z,76.28
2023-05-10T23:54:10.501Z,76.15
2023-05-10T23:56:39.009Z,76.24
2023-05-10T23:59:07.830Z,76.61
